sensor_id;sensor_type;location;lat;lon;timestamp;pressure;altitude;pressure_sealevel;temperature;humidity
60832;BME280;46665;51.558;-0.448;2023-02-15T00:01:50;102137.50;;;0.32;100.00
60832;BME280;46665;51.558;-0.448;2023-02-15T00:04:34;102144.19;;;0.28;100.00
60832;BME280;46665;51.558;-0.448;2023-02-15T00:07:30;102143.06;;;0.22;100.00
60832;BME280;46665;51.558;-0.448;2023-02-15T00:10:14;102127.38;;;0.19;100.00
60832;BME280;46665;51.558;-0.448;2023-02-15T00:12:59;102113.22;;;0.10;100.00
60832;BME280;46665;51.558;-0.448;2023-02-15T00:15:43;102117.91;;;0.08;100.00
60832;BME280;46665;51.558;-0.448;2023-02-15T00:18:27;102119.75;;;0.08;100.00
60832;BME280;46665;51.558;-0.448;2023-02-15T00:21:11;102107.84;;;0.10;100.00
60832;BME280;46665;51.558;-0.448;2023-02-15T00:23:57;102100.81;;;0.09;100.00
60832;BME280;46665;51.558;-0.448;2023-02-15T00:26:42;102098.34;;;0.08;100.00
60832;BME280;46665;51.558;-0.448;2023-02-15T00:29:26;102100.44;;;0.12;100.00
60832;BME280;46665;51.558;-0.448;2023-02-15T00:32:11;102094.56;;;0.17;100.00
60832;BME280;46665;51.558;-0.448;2023-02-15T00:34:55;102087.72;;;0.14;100.00
60832;BME280;46665;51.558;-0.448;2023-02-15T00:37:39;102093.31;;;0.05;100.00
60832;BME280;46665;51.558;-0.448;2023-02-15T00:40:23;102090.16;;;0.01;100.00
60832;BME280;46665;51.558;-0.448;2023-02-15T00:43:07;102082.13;;;0.01;100.00
60832;BME280;46665;51.558;-0.448;2023-02-15T00:45:51;102085.47;;;0.03;100.00
60832;BME280;46665;51.558;-0.448;2023-02-15T00:48:35;102080.28;;;0.02;100.00
60832;BME280;46665;51.558;-0.448;2023-02-15T00:51:19;102078.78;;;-0.01;100.00
60832;BME280;46665;51.558;-0.448;2023-02-15T00:54:04;102076.41;;;0.04;100.00
60832;BME280;46665;51.558;-0.448;2023-02-15T00:56:48;102060.66;;;0.09;100.00
60832;BME280;46665;51.558;-0.448;2023-02-15T00:59:32;102066.50;;;0.13;100.00
60832;BME280;46665;51.558;-0.448;2023-02-15T01:02:16;102068.34;;;0.12;100.00
60832;BME280;46665;51.558;-0.448;2023-02-15T01:05:00;102060.97;;;0.14;100.00
60832;BME280;46665;51.558;-0.448;2023-02-15T01:07:43;102062.66;;;0.15;100.00
60832;BME280;46665;51.558;-0.448;2023-02-15T01:10:28;102054.91;;;0.20;100.00
60832;BME280;46665;51.558;-0.448;2023-02-15T01:13:13;102045.78;;;0.30;100.00
60832;BME280;46665;51.558;-0.448;2023-02-15T01:15:57;102050.44;;;0.36;100.00
60832;BME280;46665;51.558;-0.448;2023-02-15T01:18:41;102042.44;;;0.36;100.00
60832;BME280;46665;51.558;-0.448;2023-02-15T01:21:25;102027.88;;;0.30;100.00
60832;BME280;46665;51.558;-0.448;2023-02-15T01:24:13;102027.13;;;0.21;100.00
60832;BME280;46665;51.558;-0.448;2023-02-15T01:26:58;102026.47;;;0.19;100.00
60832;BME280;46665;51.558;-0.448;2023-02-15T01:29:42;102020.28;;;0.19;100.00
60832;BME280;46665;51.558;-0.448;2023-02-15T01:32:25;102018.78;;;0.16;100.00
60832;BME280;46665;51.558;-0.448;2023-02-15T01:35:10;102005.88;;;0.20;100.00
60832;BME280;46665;51.558;-0.448;2023-02-15T01:37:55;102003.19;;;0.20;100.00
60832;BME280;46665;51.558;-0.448;2023-02-15T01:40:40;102001.72;;;0.17;100.00
60832;BME280;46665;51.558;-0.448;2023-02-15T01:43:42;101992.75;;;0.10;100.00
60832;BME280;46665;51.558;-0.448;2023-02-15T01:46:36;101996.25;;;0.11;100.00
60832;BME280;46665;51.558;-0.448;2023-02-15T01:49:23;101985.25;;;0.06;100.00
60832;BME280;46665;51.558;-0.448;2023-02-15T01:52:11;101981.91;;;0.04;100.00
60832;BME280;46665;51.558;-0.448;2023-02-15T01:54:57;101980.06;;;0.04;100.00
60832;BME280;46665;51.558;-0.448;2023-02-15T01:57:41;101978.22;;;0.05;100.00
60832;BME280;46665;51.558;-0.448;2023-02-15T02:00:26;101981.75;;;0.05;100.00
60832;BME280;46665;51.558;-0.448;2023-02-15T02:03:10;101979.94;;;-0.03;100.00
60832;BME280;46665;51.558;-0.448;2023-02-15T02:05:55;101974.13;;;-0.06;100.00
60832;BME280;46665;51.558;-0.448;2023-02-15T02:08:39;101973.47;;;-0.08;100.00
60832;BME280;46665;51.558;-0.448;2023-02-15T02:11:24;101968.00;;;-0.15;100.00
60832;BME280;46665;51.558;-0.448;2023-02-15T02:14:08;101969.38;;;-0.19;100.00
60832;BME280;46665;51.558;-0.448;2023-02-15T02:32:12;101963.69;;;-0.47;100.00
60832;BME280;46665;51.558;-0.448;2023-02-15T02:35:16;101964.00;;;-0.42;100.00
60832;BME280;46665;51.558;-0.448;2023-02-15T02:41:00;101963.31;;;-0.44;100.00
60832;BME280;46665;51.558;-0.448;2023-02-15T02:43:53;101973.03;;;-0.43;100.00
60832;BME280;46665;51.558;-0.448;2023-02-15T02:46:54;101967.44;;;-0.33;100.00
60832;BME280;46665;51.558;-0.448;2023-02-15T02:49:41;101956.03;;;-0.27;100.00
60832;BME280;46665;51.558;-0.448;2023-02-15T02:52:45;101952.00;;;-0.23;100.00
60832;BME280;46665;51.558;-0.448;2023-02-15T02:55:33;101948.84;;;-0.27;100.00
60832;BME280;46665;51.558;-0.448;2023-02-15T02:58:36;101952.53;;;-0.28;100.00
60832;BME280;46665;51.558;-0.448;2023-02-15T03:01:50;101937.84;;;-0.32;100.00
60832;BME280;46665;51.558;-0.448;2023-02-15T03:04:38;101936.53;;;-0.36;100.00
60832;BME280;46665;51.558;-0.448;2023-02-15T03:07:23;101932.56;;;-0.40;100.00
60832;BME280;46665;51.558;-0.448;2023-02-15T03:10:09;101932.25;;;-0.45;100.00
60832;BME280;46665;51.558;-0.448;2023-02-15T03:12:53;101929.38;;;-0.44;100.00
60832;BME280;46665;51.558;-0.448;2023-02-15T03:15:39;101928.19;;;-0.41;100.00
60832;BME280;46665;51.558;-0.448;2023-02-15T03:18:48;101925.38;;;-0.39;100.00
60832;BME280;46665;51.558;-0.448;2023-02-15T03:21:39;101927.88;;;-0.38;100.00
60832;BME280;46665;51.558;-0.448;2023-02-15T03:24:29;101923.22;;;-0.44;100.00
60832;BME280;46665;51.558;-0.448;2023-02-15T03:27:19;101920.47;;;-0.36;100.00
60832;BME280;46665;51.558;-0.448;2023-02-15T03:30:05;101914.31;;;-0.36;100.00
60832;BME280;46665;51.558;-0.448;2023-02-15T03:32:51;101913.00;;;-0.40;100.00
60832;BME280;46665;51.558;-0.448;2023-02-15T03:38:30;101901.81;;;-0.44;100.00
60832;BME280;46665;51.558;-0.448;2023-02-15T03:41:19;101900.50;;;-0.48;100.00
60832;BME280;46665;51.558;-0.448;2023-02-15T03:44:23;101890.34;;;-0.53;100.00
60832;BME280;46665;51.558;-0.448;2023-02-15T03:47:15;101892.00;;;-0.52;100.00
60832;BME280;46665;51.558;-0.448;2023-02-15T03:50:04;101893.66;;;-0.51;100.00
60832;BME280;46665;51.558;-0.448;2023-02-15T03:53:12;101889.16;;;-0.50;100.00
60832;BME280;46665;51.558;-0.448;2023-02-15T03:55:57;101894.31;;;-0.49;100.00
60832;BME280;46665;51.558;-0.448;2023-02-15T03:58:41;101881.78;;;-0.48;100.00
60832;BME280;46665;51.558;-0.448;2023-02-15T04:02:13;101875.59;;;-0.49;100.00
60832;BME280;46665;51.558;-0.448;2023-02-15T04:04:59;101870.78;;;-0.53;100.00
60832;BME280;46665;51.558;-0.448;2023-02-15T04:07:43;101864.59;;;-0.54;100.00
60832;BME280;46665;51.558;-0.448;2023-02-15T04:10:27;101863.78;;;-0.54;100.00
60832;BME280;46665;51.558;-0.448;2023-02-15T04:13:31;101865.50;;;-0.61;100.00
60832;BME280;46665;51.558;-0.448;2023-02-15T04:16:16;101855.91;;;-0.79;100.00
60832;BME280;46665;51.558;-0.448;2023-02-15T04:18:59;101854.63;;;-0.83;100.00
60832;BME280;46665;51.558;-0.448;2023-02-15T04:22:02;101852.78;;;-0.82;100.00
60832;BME280;46665;51.558;-0.448;2023-02-15T04:25:05;101861.63;;;-0.82;100.00
60832;BME280;46665;51.558;-0.448;2023-02-15T04:27:54;101862.44;;;-0.81;100.00
60832;BME280;46665;51.558;-0.448;2023-02-15T04:30:38;101862.28;;;-0.80;100.00
60832;BME280;46665;51.558;-0.448;2023-02-15T04:33:22;101865.09;;;-0.73;100.00
60832;BME280;46665;51.558;-0.448;2023-02-15T04:36:06;101861.41;;;-0.72;100.00
60832;BME280;46665;51.558;-0.448;2023-02-15T04:38:50;101859.38;;;-0.70;100.00
60832;BME280;46665;51.558;-0.448;2023-02-15T04:41:34;101852.31;;;-0.63;100.00
60832;BME280;46665;51.558;-0.448;2023-02-15T04:44:18;101849.66;;;-0.63;100.00
60832;BME280;46665;51.558;-0.448;2023-02-15T04:47:02;101849.81;;;-0.64;100.00
60832;BME280;46665;51.558;-0.448;2023-02-15T04:49:46;101846.97;;;-0.63;100.00
60832;BME280;46665;51.558;-0.448;2023-02-15T04:52:30;101839.13;;;-0.64;100.00
60832;BME280;46665;51.558;-0.448;2023-02-15T04:55:14;101840.16;;;-0.66;100.00
60832;BME280;46665;51.558;-0.448;2023-02-15T04:57:58;101833.47;;;-0.70;100.00
60832;BME280;46665;51.558;-0.448;2023-02-15T05:00:42;101843.41;;;-0.78;100.00
60832;BME280;46665;51.558;-0.448;2023-02-15T05:03:26;101836.88;;;-0.76;100.00
60832;BME280;46665;51.558;-0.448;2023-02-15T05:06:10;101844.22;;;-0.78;100.00
60832;BME280;46665;51.558;-0.448;2023-02-15T05:08:54;101842.22;;;-0.76;100.00
60832;BME280;46665;51.558;-0.448;2023-02-15T05:11:39;101843.22;;;-0.77;100.00
60832;BME280;46665;51.558;-0.448;2023-02-15T05:14:23;101844.75;;;-0.82;100.00
60832;BME280;46665;51.558;-0.448;2023-02-15T05:17:07;101838.06;;;-0.78;100.00
60832;BME280;46665;51.558;-0.448;2023-02-15T05:19:51;101835.19;;;-0.77;100.00
60832;BME280;46665;51.558;-0.448;2023-02-15T05:22:35;101832.06;;;-0.80;100.00
60832;BME280;46665;51.558;-0.448;2023-02-15T05:25:19;101831.03;;;-0.79;100.00
60832;BME280;46665;51.558;-0.448;2023-02-15T05:28:23;101836.22;;;-0.78;100.00
60832;BME280;46665;51.558;-0.448;2023-02-15T05:31:17;101827.19;;;-0.77;100.00
60832;BME280;46665;51.558;-0.448;2023-02-15T05:34:02;101824.34;;;-0.75;100.00
60832;BME280;46665;51.558;-0.448;2023-02-15T05:36:46;101829.19;;;-0.79;100.00
60832;BME280;46665;51.558;-0.448;2023-02-15T05:39:30;101826.81;;;-0.74;100.00
60832;BME280;46665;51.558;-0.448;2023-02-15T05:42:14;101827.84;;;-0.75;100.00
60832;BME280;46665;51.558;-0.448;2023-02-15T05:44:58;101820.84;;;-0.76;100.00
60832;BME280;46665;51.558;-0.448;2023-02-15T05:47:42;101815.66;;;-0.77;100.00
60832;BME280;46665;51.558;-0.448;2023-02-15T05:50:27;101815.19;;;-0.81;100.00
60832;BME280;46665;51.558;-0.448;2023-02-15T05:53:11;101804.84;;;-0.84;100.00
60832;BME280;46665;51.558;-0.448;2023-02-15T05:55:55;101821.00;;;-0.77;100.00
60832;BME280;46665;51.558;-0.448;2023-02-15T05:58:42;101817.97;;;-0.74;100.00
60832;BME280;46665;51.558;-0.448;2023-02-15T06:01:26;101822.78;;;-0.70;100.00
60832;BME280;46665;51.558;-0.448;2023-02-15T06:04:10;101807.41;;;-0.68;100.00
60832;BME280;46665;51.558;-0.448;2023-02-15T06:06:54;101810.91;;;-0.67;100.00
60832;BME280;46665;51.558;-0.448;2023-02-15T06:09:38;101805.72;;;-0.69;100.00
60832;BME280;46665;51.558;-0.448;2023-02-15T06:12:23;101797.72;;;-0.69;100.00
60832;BME280;46665;51.558;-0.448;2023-02-15T06:15:07;101794.88;;;-0.67;100.00
60832;BME280;46665;51.558;-0.448;2023-02-15T06:17:51;101801.69;;;-0.64;100.00
60832;BME280;46665;51.558;-0.448;2023-02-15T06:20:35;101799.56;;;-0.69;100.00
60832;BME280;46665;51.558;-0.448;2023-02-15T06:23:19;101801.88;;;-0.66;100.00
60832;BME280;46665;51.558;-0.448;2023-02-15T06:26:03;101793.84;;;-0.66;100.00
60832;BME280;46665;51.558;-0.448;2023-02-15T06:28:47;101793.50;;;-0.63;100.00
60832;BME280;46665;51.558;-0.448;2023-02-15T06:31:31;101794.13;;;-0.61;100.00
60832;BME280;46665;51.558;-0.448;2023-02-15T06:34:15;101794.13;;;-0.61;100.00
60832;BME280;46665;51.558;-0.448;2023-02-15T06:36:59;101797.66;;;-0.60;100.00
60832;BME280;46665;51.558;-0.448;2023-02-15T06:39:43;101791.66;;;-0.62;100.00
60832;BME280;46665;51.558;-0.448;2023-02-15T06:42:28;101793.16;;;-0.60;100.00
60832;BME280;46665;51.558;-0.448;2023-02-15T06:45:12;101807.22;;;-0.66;100.00
60832;BME280;46665;51.558;-0.448;2023-02-15T06:47:57;101802.59;;;-0.72;100.00
60832;BME280;46665;51.558;-0.448;2023-02-15T06:50:41;101795.94;;;-0.76;100.00
60832;BME280;46665;51.558;-0.448;2023-02-15T06:53:25;101804.81;;;-0.76;100.00
60832;BME280;46665;51.558;-0.448;2023-02-15T06:56:10;101800.44;;;-0.77;100.00
60832;BME280;46665;51.558;-0.448;2023-02-15T06:58:54;101814.69;;;-0.84;100.00
60832;BME280;46665;51.558;-0.448;2023-02-15T07:01:38;101813.88;;;-0.85;100.00
60832;BME280;46665;51.558;-0.448;2023-02-15T07:04:22;101809.72;;;-0.88;100.00
60832;BME280;46665;51.558;-0.448;2023-02-15T07:07:11;101815.19;;;-0.81;100.00
60832;BME280;46665;51.558;-0.448;2023-02-15T07:09:55;101816.84;;;-0.80;100.00
60832;BME280;46665;51.558;-0.448;2023-02-15T07:12:39;101810.31;;;-0.77;100.00
60832;BME280;46665;51.558;-0.448;2023-02-15T07:15:26;101807.94;;;-0.72;100.00
60832;BME280;46665;51.558;-0.448;2023-02-15T07:18:10;101808.75;;;-0.72;100.00
60832;BME280;46665;51.558;-0.448;2023-02-15T07:20:54;101811.28;;;-0.70;100.00
60832;BME280;46665;51.558;-0.448;2023-02-15T07:23:39;101811.72;;;-0.67;100.00
60832;BME280;46665;51.558;-0.448;2023-02-15T07:26:24;101820.41;;;-0.64;100.00
60832;BME280;46665;51.558;-0.448;2023-02-15T07:29:08;101812.31;;;-0.56;100.00
60832;BME280;46665;51.558;-0.448;2023-02-15T07:31:52;101819.00;;;-0.52;100.00
60832;BME280;46665;51.558;-0.448;2023-02-15T07:34:36;101822.94;;;-0.48;100.00
60832;BME280;46665;51.558;-0.448;2023-02-15T07:37:20;101824.28;;;-0.44;100.00
60832;BME280;46665;51.558;-0.448;2023-02-15T07:40:04;101826.56;;;-0.41;100.00
60832;BME280;46665;51.558;-0.448;2023-02-15T07:42:49;101834.59;;;-0.41;100.00
60832;BME280;46665;51.558;-0.448;2023-02-15T07:45:33;101832.06;;;-0.34;100.00
60832;BME280;46665;51.558;-0.448;2023-02-15T07:48:17;101841.09;;;-0.35;100.00
60832;BME280;46665;51.558;-0.448;2023-02-15T07:51:02;101843.22;;;-0.31;100.00
60832;BME280;46665;51.558;-0.448;2023-02-15T07:53:47;101841.69;;;-0.25;100.00
60832;BME280;46665;51.558;-0.448;2023-02-15T07:56:31;101839.09;;;-0.18;100.00
60832;BME280;46665;51.558;-0.448;2023-02-15T07:59:16;101830.13;;;-0.26;100.00
60832;BME280;46665;51.558;-0.448;2023-02-15T08:02:00;101830.63;;;-0.22;100.00
60832;BME280;46665;51.558;-0.448;2023-02-15T08:04:44;101836.78;;;-0.22;100.00
60832;BME280;46665;51.558;-0.448;2023-02-15T08:07:28;101831.44;;;-0.22;100.00
60832;BME280;46665;51.558;-0.448;2023-02-15T08:10:12;101834.41;;;-0.16;100.00
60832;BME280;46665;51.558;-0.448;2023-02-15T08:13:15;101845.56;;;-0.13;100.00
60832;BME280;46665;51.558;-0.448;2023-02-15T08:15:59;101832.19;;;-0.13;100.00
60832;BME280;46665;51.558;-0.448;2023-02-15T08:18:43;101833.66;;;-0.10;100.00
60832;BME280;46665;51.558;-0.448;2023-02-15T08:21:29;101834.81;;;-0.05;100.00
60832;BME280;46665;51.558;-0.448;2023-02-15T08:24:18;101830.09;;;-0.03;100.00
60832;BME280;46665;51.558;-0.448;2023-02-15T08:27:03;101832.97;;;-0.04;100.00
60832;BME280;46665;51.558;-0.448;2023-02-15T08:29:48;101824.38;;;0.01;100.00
60832;BME280;46665;51.558;-0.448;2023-02-15T08:32:31;101829.75;;;0.01;100.00
60832;BME280;46665;51.558;-0.448;2023-02-15T08:35:16;101815.34;;;0.02;100.00
60832;BME280;46665;51.558;-0.448;2023-02-15T08:38:00;101816.28;;;0.09;100.00
60832;BME280;46665;51.558;-0.448;2023-02-15T08:40:44;101822.94;;;0.13;100.00
60832;BME280;46665;51.558;-0.448;2023-02-15T08:43:28;101823.84;;;0.20;100.00
60832;BME280;46665;51.558;-0.448;2023-02-15T08:46:13;101819.69;;;0.17;100.00
60832;BME280;46665;51.558;-0.448;2023-02-15T08:48:58;101816.09;;;0.25;100.00
60832;BME280;46665;51.558;-0.448;2023-02-15T08:51:42;101813.50;;;0.32;100.00
60832;BME280;46665;51.558;-0.448;2023-02-15T08:54:26;101823.31;;;0.39;100.00
60832;BME280;46665;51.558;-0.448;2023-02-15T08:57:10;101819.69;;;0.47;100.00
60832;BME280;46665;51.558;-0.448;2023-02-15T08:59:54;101815.09;;;0.56;100.00
60832;BME280;46665;51.558;-0.448;2023-02-15T09:02:38;101819.88;;;0.60;100.00
60832;BME280;46665;51.558;-0.448;2023-02-15T09:05:22;101823.66;;;0.66;100.00
60832;BME280;46665;51.558;-0.448;2023-02-15T09:08:06;101826.25;;;0.74;100.00
60832;BME280;46665;51.558;-0.448;2023-02-15T09:10:50;101824.75;;;0.86;100.00
60832;BME280;46665;51.558;-0.448;2023-02-15T09:13:34;101827.75;;;0.98;100.00
60832;BME280;46665;51.558;-0.448;2023-02-15T09:16:19;101821.25;;;1.07;100.00
60832;BME280;46665;51.558;-0.448;2023-02-15T09:19:04;101817.31;;;1.25;100.00
60832;BME280;46665;51.558;-0.448;2023-02-15T09:21:48;101813.75;;;1.39;100.00
60832;BME280;46665;51.558;-0.448;2023-02-15T09:24:32;101810.81;;;1.56;100.00
60832;BME280;46665;51.558;-0.448;2023-02-15T09:27:17;101810.28;;;1.67;100.00
60832;BME280;46665;51.558;-0.448;2023-02-15T09:30:03;101817.25;;;1.83;100.00
60832;BME280;46665;51.558;-0.448;2023-02-15T09:32:47;101815.28;;;1.98;100.00
60832;BME280;46665;51.558;-0.448;2023-02-15T09:35:32;101813.13;;;2.15;100.00
60832;BME280;46665;51.558;-0.448;2023-02-15T09:38:16;101805.59;;;2.32;100.00
60832;BME280;46665;51.558;-0.448;2023-02-15T09:57:00;101802.41;;;3.11;100.00
60832;BME280;46665;51.558;-0.448;2023-02-15T10:00:12;101803.47;;;3.23;100.00
60832;BME280;46665;51.558;-0.448;2023-02-15T10:03:04;101805.56;;;3.35;100.00
60832;BME280;46665;51.558;-0.448;2023-02-15T10:18:43;101797.84;;;4.38;100.00
60832;BME280;46665;51.558;-0.448;2023-02-15T10:27:41;101817.25;;;5.43;100.00
60832;BME280;46665;51.558;-0.448;2023-02-15T10:33:42;101813.94;;;5.98;100.00
60832;BME280;46665;51.558;-0.448;2023-02-15T10:46:03;101821.53;;;6.51;100.00
60832;BME280;46665;51.558;-0.448;2023-02-15T10:58:03;101795.50;;;6.87;100.00
60832;BME280;46665;51.558;-0.448;2023-02-15T11:06:41;101784.53;;;7.12;100.00
60832;BME280;46665;51.558;-0.448;2023-02-15T11:09:36;101792.94;;;7.23;100.00
60832;BME280;46665;51.558;-0.448;2023-02-15T11:12:24;101786.16;;;7.44;100.00
60832;BME280;46665;51.558;-0.448;2023-02-15T11:15:24;101771.69;;;7.50;100.00
60832;BME280;46665;51.558;-0.448;2023-02-15T11:18:40;101771.69;;;7.62;100.00
60832;BME280;46665;51.558;-0.448;2023-02-15T11:21:29;101770.78;;;7.68;100.00
60832;BME280;46665;51.558;-0.448;2023-02-15T11:24:18;101769.13;;;7.78;100.00
60832;BME280;46665;51.558;-0.448;2023-02-15T11:32:53;101760.13;;;8.25;100.00
60832;BME280;46665;51.558;-0.448;2023-02-15T11:35:58;101770.66;;;8.33;100.00
60832;BME280;46665;51.558;-0.448;2023-02-15T11:38:44;101770.50;;;8.52;100.00
60832;BME280;46665;51.558;-0.448;2023-02-15T11:41:34;101771.31;;;8.64;100.00
60832;BME280;46665;51.558;-0.448;2023-02-15T11:44:32;101774.56;;;8.78;100.00
60832;BME280;46665;51.558;-0.448;2023-02-15T11:47:18;101771.31;;;8.93;100.00
60832;BME280;46665;51.558;-0.448;2023-02-15T11:50:02;101761.56;;;9.08;100.00
60832;BME280;46665;51.558;-0.448;2023-02-15T11:52:47;101764.53;;;9.24;100.00
60832;BME280;46665;51.558;-0.448;2023-02-15T11:55:31;101759.38;;;9.39;100.00
60832;BME280;46665;51.558;-0.448;2023-02-15T11:58:40;101753.56;;;9.47;100.00
60832;BME280;46665;51.558;-0.448;2023-02-15T12:01:55;101748.59;;;9.61;100.00
60832;BME280;46665;51.558;-0.448;2023-02-15T12:04:43;101735.19;;;9.71;100.00
60832;BME280;46665;51.558;-0.448;2023-02-15T12:07:44;101739.09;;;9.97;100.00
60832;BME280;46665;51.558;-0.448;2023-02-15T12:10:34;101728.00;;;10.21;98.56
60832;BME280;46665;51.558;-0.448;2023-02-15T12:13:20;101717.53;;;10.30;98.34
60832;BME280;46665;51.558;-0.448;2023-02-15T12:16:06;101733.78;;;10.47;95.62
60832;BME280;46665;51.558;-0.448;2023-02-15T12:18:56;101727.84;;;10.50;96.08
60832;BME280;46665;51.558;-0.448;2023-02-15T12:21:41;101723.03;;;10.57;96.92
60832;BME280;46665;51.558;-0.448;2023-02-15T12:24:36;101721.13;;;10.57;96.79
60832;BME280;46665;51.558;-0.448;2023-02-15T12:27:27;101721.50;;;10.66;96.35
60832;BME280;46665;51.558;-0.448;2023-02-15T12:30:19;101709.00;;;10.70;96.75
60832;BME280;46665;51.558;-0.448;2023-02-15T12:33:20;101715.44;;;10.86;94.82
60832;BME280;46665;51.558;-0.448;2023-02-15T12:36:17;101715.47;;;10.91;95.20
60832;BME280;46665;51.558;-0.448;2023-02-15T12:45:02;101710.78;;;11.46;88.57
60832;BME280;46665;51.558;-0.448;2023-02-15T12:47:46;101711.66;;;11.52;89.50
60832;BME280;46665;51.558;-0.448;2023-02-15T12:50:51;101705.69;;;11.55;89.61
60832;BME280;46665;51.558;-0.448;2023-02-15T12:53:36;101700.03;;;11.66;88.81
60832;BME280;46665;51.558;-0.448;2023-02-15T12:56:26;101697.38;;;11.77;87.54
60832;BME280;46665;51.558;-0.448;2023-02-15T12:59:13;101685.16;;;11.84;86.76
60832;BME280;46665;51.558;-0.448;2023-02-15T13:02:06;101686.25;;;11.83;88.63
60832;BME280;46665;51.558;-0.448;2023-02-15T13:05:17;101680.94;;;12.04;85.53
60832;BME280;46665;51.558;-0.448;2023-02-15T13:08:17;101678.56;;;12.28;82.64
60832;BME280;46665;51.558;-0.448;2023-02-15T13:11:07;101690.88;;;12.35;82.70
60832;BME280;46665;51.558;-0.448;2023-02-15T13:13:58;101691.47;;;12.48;83.05
60832;BME280;46665;51.558;-0.448;2023-02-15T13:16:44;101692.03;;;12.55;83.08
60832;BME280;46665;51.558;-0.448;2023-02-15T13:19:46;101683.63;;;12.72;80.17
60832;BME280;46665;51.558;-0.448;2023-02-15T13:22:42;101689.91;;;12.83;79.88
60832;BME280;46665;51.558;-0.448;2023-02-15T13:25:30;101685.56;;;12.92;77.09
60832;BME280;46665;51.558;-0.448;2023-02-15T13:28:22;101673.28;;;12.99;76.19
60832;BME280;46665;51.558;-0.448;2023-02-15T13:31:14;101665.63;;;13.01;76.33
60832;BME280;46665;51.558;-0.448;2023-02-15T13:34:22;101659.31;;;13.21;72.47
60832;BME280;46665;51.558;-0.448;2023-02-15T13:40:08;101656.34;;;13.28;72.98
60832;BME280;46665;51.558;-0.448;2023-02-15T13:42:59;101658.00;;;13.34;72.78
60832;BME280;46665;51.558;-0.448;2023-02-15T13:46:12;101652.78;;;13.43;71.66
60832;BME280;46665;51.558;-0.448;2023-02-15T14:08:00;101638.81;;;13.65;70.08
60832;BME280;46665;51.558;-0.448;2023-02-15T14:10:59;101622.66;;;13.63;70.51
60832;BME280;46665;51.558;-0.448;2023-02-15T14:19:57;101639.09;;;13.53;72.15
60832;BME280;46665;51.558;-0.448;2023-02-15T14:22:54;101633.41;;;13.44;71.57
60832;BME280;46665;51.558;-0.448;2023-02-15T14:25:52;101643.22;;;13.46;71.67
60832;BME280;46665;51.558;-0.448;2023-02-15T14:29:02;101632.03;;;13.47;71.29
60832;BME280;46665;51.558;-0.448;2023-02-15T14:31:55;101627.06;;;13.44;72.54
60832;BME280;46665;51.558;-0.448;2023-02-15T14:34:48;101626.81;;;13.51;71.11
60832;BME280;46665;51.558;-0.448;2023-02-15T14:37:50;101636.09;;;13.55;70.79
60832;BME280;46665;51.558;-0.448;2023-02-15T14:44:14;101640.50;;;13.40;72.31
60832;BME280;46665;51.558;-0.448;2023-02-15T14:47:05;101631.47;;;13.50;71.09
60832;BME280;46665;51.558;-0.448;2023-02-15T14:49:51;101630.91;;;13.53;70.98
60832;BME280;46665;51.558;-0.448;2023-02-15T14:58:56;101627.63;;;13.41;72.29
60832;BME280;46665;51.558;-0.448;2023-02-15T15:01:42;101629.28;;;13.32;73.27
60832;BME280;46665;51.558;-0.448;2023-02-15T15:04:37;101628.75;;;13.40;71.75
60832;BME280;46665;51.558;-0.448;2023-02-15T15:07:28;101633.13;;;13.36;72.21
60832;BME280;46665;51.558;-0.448;2023-02-15T15:16:30;101627.41;;;13.27;71.63
60832;BME280;46665;51.558;-0.448;2023-02-15T15:22:29;101635.59;;;13.27;71.36
60832;BME280;46665;51.558;-0.448;2023-02-15T15:49:39;101645.66;;;12.80;71.87
60832;BME280;46665;51.558;-0.448;2023-02-15T15:52:26;101644.56;;;12.71;72.10
60832;BME280;46665;51.558;-0.448;2023-02-15T15:55:16;101645.63;;;12.60;72.12
60832;BME280;46665;51.558;-0.448;2023-02-15T15:58:06;101647.56;;;12.65;71.86
60832;BME280;46665;51.558;-0.448;2023-02-15T16:00:55;101636.34;;;12.56;72.24
60832;BME280;46665;51.558;-0.448;2023-02-15T16:03:50;101643.44;;;12.52;70.74
60832;BME280;46665;51.558;-0.448;2023-02-15T16:06:37;101650.22;;;12.39;72.29
60832;BME280;46665;51.558;-0.448;2023-02-15T16:09:26;101647.75;;;12.38;71.89
60832;BME280;46665;51.558;-0.448;2023-02-15T16:12:17;101646.66;;;12.28;72.51
60832;BME280;46665;51.558;-0.448;2023-02-15T16:15:19;101646.91;;;12.27;72.31
60832;BME280;46665;51.558;-0.448;2023-02-15T16:18:03;101645.25;;;12.21;73.02
60832;BME280;46665;51.558;-0.448;2023-02-15T16:27:33;101647.38;;;12.03;73.54
60832;BME280;46665;51.558;-0.448;2023-02-15T16:29:44;101638.88;;;11.95;74.82
60832;BME280;46665;51.558;-0.448;2023-02-15T16:32:28;101639.38;;;11.86;75.12
60832;BME280;46665;51.558;-0.448;2023-02-15T16:35:18;101636.03;;;11.79;76.15
60832;BME280;46665;51.558;-0.448;2023-02-15T16:38:03;101628.94;;;11.73;75.52
60832;BME280;46665;51.558;-0.448;2023-02-15T16:40:51;101629.19;;;11.71;75.65
60832;BME280;46665;51.558;-0.448;2023-02-15T16:43:40;101626.16;;;11.63;76.48
60832;BME280;46665;51.558;-0.448;2023-02-15T16:46:30;101636.22;;;11.57;76.48
60832;BME280;46665;51.558;-0.448;2023-02-15T16:49:26;101632.59;;;11.52;76.14
60832;BME280;46665;51.558;-0.448;2023-02-15T16:52:14;101629.31;;;11.44;75.73
60832;BME280;46665;51.558;-0.448;2023-02-15T16:55:04;101628.44;;;11.39;76.21
60832;BME280;46665;51.558;-0.448;2023-02-15T16:57:50;101627.88;;;11.37;75.84
60832;BME280;46665;51.558;-0.448;2023-02-15T17:00:36;101632.19;;;11.27;76.03
60832;BME280;46665;51.558;-0.448;2023-02-15T17:03:23;101632.72;;;11.24;74.83
60832;BME280;46665;51.558;-0.448;2023-02-15T17:06:25;101630.22;;;11.18;74.70
60832;BME280;46665;51.558;-0.448;2023-02-15T17:09:16;101629.06;;;11.14;75.53
60832;BME280;46665;51.558;-0.448;2023-02-15T17:12:08;101626.56;;;11.02;76.02
60832;BME280;46665;51.558;-0.448;2023-02-15T17:14:54;101626.56;;;11.02;76.28
60832;BME280;46665;51.558;-0.448;2023-02-15T17:17:38;101634.41;;;10.98;77.23